
<gpx xmlns="http://www.topografix.com/GPX/1/1" xmlns:gpxx="http://www.garmin.com/xmlschemas/GpxExtensions/v3" xmlns:xsi="http://www.w3.org/2001/XMLSchema-instance" version="1.1" creator="Adze - https://getadze.com/" xsi:schemaLocation="http://www.topografix.com/GPX/1/1 http://www.topografix.com/GPX/1/1/gpx.xsd http://www.garmin.com/xmlschemas/GpxExtensions/v3 http://www.garmin.com/xmlschemas/GpxExtensionsv3.xsd">
    <metadata>
        <name>Untitled Document</name>
        <link href="http://www.garmin.com"></link>
        <time>2018-03-08T04:25:39.246Z</time>
    </metadata>
    <wpt lon="100.975072" lat="12.905608">
        <ele>72.000000</ele>
        <name>Horseshoe Point</name>
        <cmt>25-SEP-09 16:05:18</cmt>
        <desc>25-SEP-09 16:05:18</desc>
        <sym>Lodging</sym>
        <extensions>
            <gpxx:WaypointExtension xmlns:gpxx="http://www.garmin.com/xmlschemas/GpxExtensions/v3">
                <gpxx:DisplayMode>SymbolOnly</gpxx:DisplayMode>
            </gpxx:WaypointExtension>
        </extensions>
    </wpt>
    <wpt lon="101.023197" lat="12.884066">
        <ele>172.000000</ele>
        <name>September 2009 - Saturday water</name>
        <cmt>26-SEP-09 14:48:42</cmt>
        <desc>26-SEP-09 14:48:42</desc>
        <sym>Drinking Water</sym>
        <extensions>
            <gpxx:WaypointExtension xmlns:gpxx="http://www.garmin.com/xmlschemas/GpxExtensions/v3">
                <gpxx:DisplayMode>SymbolOnly</gpxx:DisplayMode>
            </gpxx:WaypointExtension>
        </extensions>
    </wpt>
    <trk>
        <name>September 2009 - Saturday</name>
        <extensions>
            <gpxx:TrackExtension xmlns:gpxx="http://www.garmin.com/xmlschemas/GpxExtensions/v3">
                <gpxx:DisplayColor>Red</gpxx:DisplayColor>
            </gpxx:TrackExtension>
        </extensions>
        <trkseg>
            <trkpt lon="100.974902" lat="12.905610">
                <ele>85.694580</ele>
                <time>2009-09-26T05:41:59Z</time>
            </trkpt>
            <trkpt lon="100.975035" lat="12.905661">
                <ele>69.352295</ele>
                <time>2009-09-26T05:44:32Z</time>
            </trkpt>
            <trkpt lon="100.974288" lat="12.906186">
                <ele>76.562134</ele>
                <time>2009-09-26T06:02:25Z</time>
            </trkpt>
            <trkpt lon="100.974218" lat="12.906092">
                <ele>78.965454</ele>
                <time>2009-09-26T06:02:30Z</time>
            </trkpt>
            <trkpt lon="100.974054" lat="12.905442">
                <ele>78.484741</ele>
                <time>2009-09-26T06:02:47Z</time>
            </trkpt>
            <trkpt lon="100.973937" lat="12.904761">
                <ele>77.523438</ele>
                <time>2009-09-26T06:03:01Z</time>
            </trkpt>
            <trkpt lon="100.973768" lat="12.904638">
                <ele>76.081421</ele>
                <time>2009-09-26T06:03:06Z</time>
            </trkpt>
            <trkpt lon="100.972883" lat="12.904561">
                <ele>72.236206</ele>
                <time>2009-09-26T06:03:25Z</time>
            </trkpt>
            <trkpt lon="100.972767" lat="12.903951">
                <ele>70.313477</ele>
                <time>2009-09-26T06:03:40Z</time>
            </trkpt>
            <trkpt lon="100.973001" lat="12.902642">
                <ele>62.622925</ele>
                <time>2009-09-26T06:04:07Z</time>
            </trkpt>
            <trkpt lon="100.972919" lat="12.901988">
                <ele>61.661743</ele>
                <time>2009-09-26T06:04:18Z</time>
            </trkpt>
            <trkpt lon="100.972475" lat="12.901039">
                <ele>56.855103</ele>
                <time>2009-09-26T06:04:36Z</time>
            </trkpt>
            <trkpt lon="100.973855" lat="12.900845">
                <ele>57.816528</ele>
                <time>2009-09-26T06:05:10Z</time>
            </trkpt>
            <trkpt lon="100.974936" lat="12.900938">
                <ele>58.297119</ele>
                <time>2009-09-26T06:05:44Z</time>
            </trkpt>
            <trkpt lon="100.975436" lat="12.900495">
                <ele>58.777710</ele>
                <time>2009-09-26T06:06:10Z</time>
            </trkpt>
            <trkpt lon="100.976029" lat="12.900320">
                <ele>60.700317</ele>
                <time>2009-09-26T06:06:28Z</time>
            </trkpt>
            <trkpt lon="100.976406" lat="12.900112">
                <ele>58.777710</ele>
                <time>2009-09-26T06:06:40Z</time>
            </trkpt>
            <trkpt lon="100.976620" lat="12.899299">
                <ele>56.855103</ele>
                <time>2009-09-26T06:06:59Z</time>
            </trkpt>
            <trkpt lon="100.977447" lat="12.897458">
                <ele>53.490479</ele>
                <time>2009-09-26T06:07:48Z</time>
            </trkpt>
            <trkpt lon="100.977361" lat="12.896697">
                <ele>54.451782</ele>
                <time>2009-09-26T06:08:05Z</time>
            </trkpt>
            <trkpt lon="100.976351" lat="12.894716">
                <ele>56.374512</ele>
                <time>2009-09-26T06:09:21Z</time>
            </trkpt>
            <trkpt lon="100.976016" lat="12.894300">
                <ele>55.893799</ele>
                <time>2009-09-26T06:09:37Z</time>
            </trkpt>
            <trkpt lon="100.975457" lat="12.894103">
                <ele>53.971191</ele>
                <time>2009-09-26T06:09:53Z</time>
            </trkpt>
            <trkpt lon="100.975078" lat="12.894530">
                <ele>49.645264</ele>
                <time>2009-09-26T06:10:11Z</time>
            </trkpt>
            <trkpt lon="100.973898" lat="12.893629">
                <ele>50.125977</ele>
                <time>2009-09-26T06:11:06Z</time>
            </trkpt>
            <trkpt lon="100.972125" lat="12.891933">
                <ele>43.877319</ele>
                <time>2009-09-26T06:12:30Z</time>
            </trkpt>
            <trkpt lon="100.971688" lat="12.891816">
                <ele>44.358032</ele>
                <time>2009-09-26T06:13:04Z</time>
            </trkpt>
            <trkpt lon="100.971041" lat="12.890751">
                <ele>44.838623</ele>
                <time>2009-09-26T06:14:04Z</time>
            </trkpt>
            <trkpt lon="100.970837" lat="12.889731">
                <ele>46.280640</ele>
                <time>2009-09-26T06:14:37Z</time>
            </trkpt>
            <trkpt lon="100.970261" lat="12.886802">
                <ele>44.358032</ele>
                <time>2009-09-26T06:16:15Z</time>
            </trkpt>
            <trkpt lon="100.970369" lat="12.887040">
                <ele>43.877319</ele>
                <time>2009-09-26T06:16:57Z</time>
            </trkpt>
            <trkpt lon="100.969724" lat="12.887261">
                <ele>43.877319</ele>
                <time>2009-09-26T06:17:20Z</time>
            </trkpt>
            <trkpt lon="100.968825" lat="12.887492">
                <ele>42.435425</ele>
                <time>2009-09-26T06:18:08Z</time>
            </trkpt>
            <trkpt lon="100.967089" lat="12.887700">
                <ele>38.109375</ele>
                <time>2009-09-26T06:20:19Z</time>
            </trkpt>
            <trkpt lon="100.966738" lat="12.885809">
                <ele>36.186768</ele>
                <time>2009-09-26T06:21:31Z</time>
            </trkpt>
            <trkpt lon="100.966768" lat="12.885228">
                <ele>36.186768</ele>
                <time>2009-09-26T06:21:59Z</time>
            </trkpt>
            <trkpt lon="100.966879" lat="12.884881">
                <ele>36.667481</ele>
                <time>2009-09-26T06:22:11Z</time>
            </trkpt>
            <trkpt lon="100.967485" lat="12.884025">
                <ele>37.628662</ele>
                <time>2009-09-26T06:22:41Z</time>
            </trkpt>
            <trkpt lon="100.967832" lat="12.883666">
                <ele>37.148071</ele>
                <time>2009-09-26T06:22:54Z</time>
            </trkpt>
            <trkpt lon="100.966735" lat="12.881789">
                <ele>34.264160</ele>
                <time>2009-09-26T06:23:46Z</time>
            </trkpt>
            <trkpt lon="100.966469" lat="12.880093">
                <ele>36.667481</ele>
                <time>2009-09-26T06:24:33Z</time>
            </trkpt>
            <trkpt lon="100.966231" lat="12.878867">
                <ele>35.225464</ele>
                <time>2009-09-26T06:24:58Z</time>
            </trkpt>
            <trkpt lon="100.966004" lat="12.878718">
                <ele>35.706055</ele>
                <time>2009-09-26T06:25:04Z</time>
            </trkpt>
            <trkpt lon="100.965653" lat="12.877477">
                <ele>34.744873</ele>
                <time>2009-09-26T06:25:32Z</time>
            </trkpt>
            <trkpt lon="100.968015" lat="12.877214">
                <ele>35.225464</ele>
                <time>2009-09-26T06:26:33Z</time>
            </trkpt>
            <trkpt lon="100.969082" lat="12.877389">
                <ele>35.706055</ele>
                <time>2009-09-26T06:26:58Z</time>
            </trkpt>
            <trkpt lon="100.969776" lat="12.877532">
                <ele>35.706055</ele>
                <time>2009-09-26T06:27:14Z</time>
            </trkpt>
            <trkpt lon="100.970085" lat="12.877288">
                <ele>35.225464</ele>
                <time>2009-09-26T06:27:26Z</time>
            </trkpt>
            <trkpt lon="100.971988" lat="12.877847">
                <ele>36.667481</ele>
                <time>2009-09-26T06:28:13Z</time>
            </trkpt>
            <trkpt lon="100.972460" lat="12.877996">
                <ele>36.667481</ele>
                <time>2009-09-26T06:28:26Z</time>
            </trkpt>
            <trkpt lon="100.972164" lat="12.879068">
                <ele>38.109375</ele>
                <time>2009-09-26T06:28:54Z</time>
            </trkpt>
            <trkpt lon="100.971849" lat="12.879197">
                <ele>37.628662</ele>
                <time>2009-09-26T06:29:03Z</time>
            </trkpt>
            <trkpt lon="100.971560" lat="12.879099">
                <ele>37.628662</ele>
                <time>2009-09-26T06:29:10Z</time>
            </trkpt>
            <trkpt lon="100.971144" lat="12.879144">
                <ele>37.148071</ele>
                <time>2009-09-26T06:29:21Z</time>
            </trkpt>
            <trkpt lon="100.970669" lat="12.880001">
                <ele>37.148071</ele>
                <time>2009-09-26T06:30:25Z</time>
            </trkpt>
            <trkpt lon="100.972543" lat="12.881638">
                <ele>38.590088</ele>
                <time>2009-09-26T06:31:32Z</time>
            </trkpt>
            <trkpt lon="100.974101" lat="12.882635">
                <ele>40.512817</ele>
                <time>2009-09-26T06:32:09Z</time>
            </trkpt>
            <trkpt lon="100.974518" lat="12.882806">
                <ele>40.512817</ele>
                <time>2009-09-26T06:32:20Z</time>
            </trkpt>
            <trkpt lon="100.976304" lat="12.882109">
                <ele>40.032105</ele>
                <time>2009-09-26T06:33:05Z</time>
            </trkpt>
            <trkpt lon="100.976166" lat="12.880938">
                <ele>40.993408</ele>
                <time>2009-09-26T06:33:36Z</time>
            </trkpt>
            <trkpt lon="100.976388" lat="12.880215">
                <ele>40.032105</ele>
                <time>2009-09-26T06:33:52Z</time>
            </trkpt>
            <trkpt lon="100.976232" lat="12.879973">
                <ele>39.551269</ele>
                <time>2009-09-26T06:33:59Z</time>
            </trkpt>
            <trkpt lon="100.975567" lat="12.879770">
                <ele>38.109375</ele>
                <time>2009-09-26T06:34:14Z</time>
            </trkpt>
            <trkpt lon="100.975218" lat="12.879242">
                <ele>37.628662</ele>
                <time>2009-09-26T06:34:28Z</time>
            </trkpt>
            <trkpt lon="100.975620" lat="12.878546">
                <ele>37.628662</ele>
                <time>2009-09-26T06:34:47Z</time>
            </trkpt>
            <trkpt lon="100.977265" lat="12.880267">
                <ele>40.512817</ele>
                <time>2009-09-26T06:35:38Z</time>
            </trkpt>
            <trkpt lon="100.977624" lat="12.880503">
                <ele>40.512817</ele>
                <time>2009-09-26T06:35:47Z</time>
            </trkpt>
            <trkpt lon="100.978322" lat="12.879948">
                <ele>41.473999</ele>
                <time>2009-09-26T06:36:10Z</time>
            </trkpt>
            <trkpt lon="100.978830" lat="12.879447">
                <ele>40.032105</ele>
                <time>2009-09-26T06:36:29Z</time>
            </trkpt>
            <trkpt lon="100.979461" lat="12.880045">
                <ele>41.473999</ele>
                <time>2009-09-26T06:37:21Z</time>
            </trkpt>
            <trkpt lon="100.979970" lat="12.880065">
                <ele>40.032105</ele>
                <time>2009-09-26T06:37:59Z</time>
            </trkpt>
            <trkpt lon="100.980172" lat="12.879955">
                <ele>39.070679</ele>
                <time>2009-09-26T06:38:08Z</time>
            </trkpt>
            <trkpt lon="100.979924" lat="12.880355">
                <ele>40.512817</ele>
                <time>2009-09-26T06:38:32Z</time>
            </trkpt>
            <trkpt lon="100.979454" lat="12.880760">
                <ele>41.473999</ele>
                <time>2009-09-26T06:38:59Z</time>
            </trkpt>
            <trkpt lon="100.980267" lat="12.881447">
                <ele>42.916016</ele>
                <time>2009-09-26T06:40:11Z</time>
            </trkpt>
            <trkpt lon="100.980705" lat="12.881920">
                <ele>43.396606</ele>
                <time>2009-09-26T06:40:50Z</time>
            </trkpt>
            <trkpt lon="100.982066" lat="12.880821">
                <ele>41.954712</ele>
                <time>2009-09-26T06:41:40Z</time>
            </trkpt>
            <trkpt lon="100.983400" lat="12.881058">
                <ele>45.319214</ele>
                <time>2009-09-26T06:42:23Z</time>
            </trkpt>
            <trkpt lon="100.984518" lat="12.881140">
                <ele>44.358032</ele>
                <time>2009-09-26T06:43:01Z</time>
            </trkpt>
            <trkpt lon="100.985433" lat="12.880892">
                <ele>44.838623</ele>
                <time>2009-09-26T06:43:40Z</time>
            </trkpt>
            <trkpt lon="100.985664" lat="12.880755">
                <ele>45.799927</ele>
                <time>2009-09-26T06:43:52Z</time>
            </trkpt>
            <trkpt lon="100.985886" lat="12.880404">
                <ele>49.164551</ele>
                <time>2009-09-26T06:44:22Z</time>
            </trkpt>
            <trkpt lon="100.986029" lat="12.879644">
                <ele>50.606567</ele>
                <time>2009-09-26T06:44:52Z</time>
            </trkpt>
            <trkpt lon="100.987083" lat="12.879109">
                <ele>51.087158</ele>
                <time>2009-09-26T06:45:30Z</time>
            </trkpt>
            <trkpt lon="100.986104" lat="12.877355">
                <ele>48.683960</ele>
                <time>2009-09-26T06:46:24Z</time>
            </trkpt>
            <trkpt lon="100.985847" lat="12.877132">
                <ele>48.203369</ele>
                <time>2009-09-26T06:46:35Z</time>
            </trkpt>
            <trkpt lon="100.985006" lat="12.875755">
                <ele>47.241821</ele>
                <time>2009-09-26T06:47:15Z</time>
            </trkpt>
            <trkpt lon="100.985107" lat="12.875552">
                <ele>48.203369</ele>
                <time>2009-09-26T06:48:06Z</time>
            </trkpt>
            <trkpt lon="100.985133" lat="12.874784">
                <ele>47.241821</ele>
                <time>2009-09-26T06:48:31Z</time>
            </trkpt>
            <trkpt lon="100.986919" lat="12.874274">
                <ele>49.645264</ele>
                <time>2009-09-26T06:49:24Z</time>
            </trkpt>
            <trkpt lon="100.987407" lat="12.875547">
                <ele>50.606567</ele>
                <time>2009-09-26T06:50:04Z</time>
            </trkpt>
            <trkpt lon="100.987814" lat="12.875899">
                <ele>52.048584</ele>
                <time>2009-09-26T06:50:19Z</time>
            </trkpt>
            <trkpt lon="100.989562" lat="12.876244">
                <ele>55.893799</ele>
                <time>2009-09-26T06:51:16Z</time>
            </trkpt>
            <trkpt lon="100.991058" lat="12.876572">
                <ele>57.335815</ele>
                <time>2009-09-26T06:52:02Z</time>
            </trkpt>
            <trkpt lon="100.990895" lat="12.875081">
                <ele>57.816528</ele>
                <time>2009-09-26T06:52:40Z</time>
            </trkpt>
            <trkpt lon="100.991850" lat="12.874914">
                <ele>59.739136</ele>
                <time>2009-09-26T06:53:10Z</time>
            </trkpt>
            <trkpt lon="100.991614" lat="12.873128">
                <ele>58.297119</ele>
                <time>2009-09-26T06:54:14Z</time>
            </trkpt>
            <trkpt lon="100.991436" lat="12.872938">
                <ele>58.297119</ele>
                <time>2009-09-26T06:54:38Z</time>
            </trkpt>
            <trkpt lon="100.991499" lat="12.872481">
                <ele>60.219727</ele>
                <time>2009-09-26T06:54:52Z</time>
            </trkpt>
            <trkpt lon="100.991641" lat="12.871491">
                <ele>58.297119</ele>
                <time>2009-09-26T06:56:44Z</time>
            </trkpt>
            <trkpt lon="100.990331" lat="12.871062">
                <ele>55.413086</ele>
                <time>2009-09-26T06:57:40Z</time>
            </trkpt>
            <trkpt lon="100.991618" lat="12.871458">
                <ele>58.297119</ele>
                <time>2009-09-26T06:58:42Z</time>
            </trkpt>
            <trkpt lon="100.991711" lat="12.872104">
                <ele>58.777710</ele>
                <time>2009-09-26T06:59:09Z</time>
            </trkpt>
            <trkpt lon="100.993527" lat="12.872573">
                <ele>62.142334</ele>
                <time>2009-09-26T07:00:11Z</time>
            </trkpt>
            <trkpt lon="100.993785" lat="12.870954">
                <ele>63.584351</ele>
                <time>2009-09-26T07:01:02Z</time>
            </trkpt>
            <trkpt lon="100.994082" lat="12.868314">
                <ele>58.297119</ele>
                <time>2009-09-26T07:02:19Z</time>
            </trkpt>
            <trkpt lon="100.996202" lat="12.868423">
                <ele>60.700317</ele>
                <time>2009-09-26T07:03:31Z</time>
            </trkpt>
            <trkpt lon="100.997601" lat="12.868591">
                <ele>62.622925</ele>
                <time>2009-09-26T07:04:39Z</time>
            </trkpt>
            <trkpt lon="100.997975" lat="12.868849">
                <ele>63.584351</ele>
                <time>2009-09-26T07:04:54Z</time>
            </trkpt>
            <trkpt lon="100.998376" lat="12.869135">
                <ele>63.584351</ele>
                <time>2009-09-26T07:05:12Z</time>
            </trkpt>
            <trkpt lon="100.998728" lat="12.870285">
                <ele>65.507080</ele>
                <time>2009-09-26T07:05:49Z</time>
            </trkpt>
            <trkpt lon="100.998663" lat="12.870600">
                <ele>65.987671</ele>
                <time>2009-09-26T07:06:00Z</time>
            </trkpt>
            <trkpt lon="100.998467" lat="12.871280">
                <ele>66.468262</ele>
                <time>2009-09-26T07:06:27Z</time>
            </trkpt>
            <trkpt lon="100.998685" lat="12.871400">
                <ele>65.987671</ele>
                <time>2009-09-26T07:06:38Z</time>
            </trkpt>
            <trkpt lon="100.999295" lat="12.871325">
                <ele>67.910278</ele>
                <time>2009-09-26T07:06:56Z</time>
            </trkpt>
            <trkpt lon="100.999709" lat="12.871457">
                <ele>68.390869</ele>
                <time>2009-09-26T07:07:09Z</time>
            </trkpt>
            <trkpt lon="101.000882" lat="12.872250">
                <ele>69.832886</ele>
                <time>2009-09-26T07:07:52Z</time>
            </trkpt>
            <trkpt lon="101.001458" lat="12.872129">
                <ele>71.274902</ele>
                <time>2009-09-26T07:08:08Z</time>
            </trkpt>
            <trkpt lon="101.002624" lat="12.871486">
                <ele>77.042847</ele>
                <time>2009-09-26T07:12:00Z</time>
            </trkpt>
            <trkpt lon="101.003261" lat="12.871205">
                <ele>74.158813</ele>
                <time>2009-09-26T07:15:48Z</time>
            </trkpt>
            <trkpt lon="101.003572" lat="12.871327">
                <ele>75.120239</ele>
                <time>2009-09-26T07:16:00Z</time>
            </trkpt>
            <trkpt lon="101.003989" lat="12.873817">
                <ele>76.562134</ele>
                <time>2009-09-26T07:17:12Z</time>
            </trkpt>
            <trkpt lon="101.003876" lat="12.874227">
                <ele>76.562134</ele>
                <time>2009-09-26T07:17:21Z</time>
            </trkpt>
            <trkpt lon="101.004015" lat="12.874887">
                <ele>76.562134</ele>
                <time>2009-09-26T07:17:36Z</time>
            </trkpt>
            <trkpt lon="101.004393" lat="12.875569">
                <ele>78.004028</ele>
                <time>2009-09-26T07:17:55Z</time>
            </trkpt>
            <trkpt lon="101.005105" lat="12.876420">
                <ele>80.888184</ele>
                <time>2009-09-26T07:18:24Z</time>
            </trkpt>
            <trkpt lon="101.005492" lat="12.876525">
                <ele>81.849365</ele>
                <time>2009-09-26T07:18:38Z</time>
            </trkpt>
            <trkpt lon="101.005948" lat="12.876070">
                <ele>81.849365</ele>
                <time>2009-09-26T07:18:56Z</time>
            </trkpt>
            <trkpt lon="101.007408" lat="12.875083">
                <ele>82.810791</ele>
                <time>2009-09-26T07:19:38Z</time>
            </trkpt>
            <trkpt lon="101.007790" lat="12.874757">
                <ele>78.004028</ele>
                <time>2009-09-26T07:20:06Z</time>
            </trkpt>
            <trkpt lon="101.008145" lat="12.874716">
                <ele>78.965454</ele>
                <time>2009-09-26T07:20:19Z</time>
            </trkpt>
            <trkpt lon="101.008622" lat="12.875381">
                <ele>87.136597</ele>
                <time>2009-09-26T07:20:58Z</time>
            </trkpt>
            <trkpt lon="101.009069" lat="12.875730">
                <ele>87.136597</ele>
                <time>2009-09-26T07:21:16Z</time>
            </trkpt>
            <trkpt lon="101.010122" lat="12.876215">
                <ele>89.059326</ele>
                <time>2009-09-26T07:21:54Z</time>
            </trkpt>
            <trkpt lon="101.010894" lat="12.876192">
                <ele>90.501343</ele>
                <time>2009-09-26T07:22:21Z</time>
            </trkpt>
            <trkpt lon="101.010968" lat="12.876196">
                <ele>89.539917</ele>
                <time>2009-09-26T07:22:24Z</time>
            </trkpt>
            <trkpt lon="101.011156" lat="12.876784">
                <ele>90.501343</ele>
                <time>2009-09-26T07:22:44Z</time>
            </trkpt>
            <trkpt lon="101.011427" lat="12.876990">
                <ele>90.981934</ele>
                <time>2009-09-26T07:22:57Z</time>
            </trkpt>
            <trkpt lon="101.011867" lat="12.878053">
                <ele>96.749878</ele>
                <time>2009-09-26T07:23:52Z</time>
            </trkpt>
            <trkpt lon="101.011870" lat="12.878072">
                <ele>96.269287</ele>
                <time>2009-09-26T07:24:05Z</time>
            </trkpt>
            <trkpt lon="101.011913" lat="12.878118">
                <ele>98.672485</ele>
                <time>2009-09-26T07:26:05Z</time>
            </trkpt>
            <trkpt lon="101.012092" lat="12.878303">
                <ele>100.595093</ele>
                <time>2009-09-26T07:26:20Z</time>
            </trkpt>
            <trkpt lon="101.012388" lat="12.878453">
                <ele>102.998291</ele>
                <time>2009-09-26T07:26:38Z</time>
            </trkpt>
            <trkpt lon="101.012540" lat="12.878731">
                <ele>103.479004</ele>
                <time>2009-09-26T07:26:54Z</time>
            </trkpt>
            <trkpt lon="101.013442" lat="12.878883">
                <ele>105.882446</ele>
                <time>2009-09-26T07:27:41Z</time>
            </trkpt>
            <trkpt lon="101.014894" lat="12.879543">
                <ele>110.208252</ele>
                <time>2009-09-26T07:31:17Z</time>
            </trkpt>
            <trkpt lon="101.015366" lat="12.879858">
                <ele>99.633789</ele>
                <time>2009-09-26T07:33:47Z</time>
            </trkpt>
            <trkpt lon="101.015535" lat="12.879783">
                <ele>98.672485</ele>
                <time>2009-09-26T07:34:36Z</time>
            </trkpt>
            <trkpt lon="101.015427" lat="12.879435">
                <ele>103.479004</ele>
                <time>2009-09-26T07:35:12Z</time>
            </trkpt>
            <trkpt lon="101.015051" lat="12.878989">
                <ele>104.440430</ele>
                <time>2009-09-26T07:35:50Z</time>
            </trkpt>
            <trkpt lon="101.015009" lat="12.878566">
                <ele>104.440430</ele>
                <time>2009-09-26T07:36:15Z</time>
            </trkpt>
            <trkpt lon="101.014819" lat="12.878367">
                <ele>105.882446</ele>
                <time>2009-09-26T07:36:31Z</time>
            </trkpt>
            <trkpt lon="101.014927" lat="12.878118">
                <ele>110.688843</ele>
                <time>2009-09-26T07:37:04Z</time>
            </trkpt>
            <trkpt lon="101.015640" lat="12.878286">
                <ele>125.589355</ele>
                <time>2009-09-26T07:38:35Z</time>
            </trkpt>
            <trkpt lon="101.016174" lat="12.878845">
                <ele>131.357300</ele>
                <time>2009-09-26T07:39:40Z</time>
            </trkpt>
            <trkpt lon="101.016386" lat="12.878895">
                <ele>133.760498</ele>
                <time>2009-09-26T07:39:57Z</time>
            </trkpt>
            <trkpt lon="101.017188" lat="12.878856">
                <ele>141.451050</ele>
                <time>2009-09-26T07:40:47Z</time>
            </trkpt>
            <trkpt lon="101.017554" lat="12.879041">
                <ele>141.931763</ele>
                <time>2009-09-26T07:41:06Z</time>
            </trkpt>
            <trkpt lon="101.017587" lat="12.879163">
                <ele>141.931763</ele>
                <time>2009-09-26T07:41:11Z</time>
            </trkpt>
            <trkpt lon="101.017549" lat="12.879627">
                <ele>140.970459</ele>
                <time>2009-09-26T07:41:25Z</time>
            </trkpt>
            <trkpt lon="101.016772" lat="12.879665">
                <ele>140.009155</ele>
                <time>2009-09-26T07:41:50Z</time>
            </trkpt>
            <trkpt lon="101.016769" lat="12.879851">
                <ele>140.009155</ele>
                <time>2009-09-26T07:41:57Z</time>
            </trkpt>
            <trkpt lon="101.017581" lat="12.880084">
                <ele>140.970459</ele>
                <time>2009-09-26T07:42:25Z</time>
            </trkpt>
            <trkpt lon="101.017877" lat="12.880065">
                <ele>140.009155</ele>
                <time>2009-09-26T07:42:35Z</time>
            </trkpt>
            <trkpt lon="101.018042" lat="12.880569">
                <ele>140.489868</ele>
                <time>2009-09-26T07:42:50Z</time>
            </trkpt>
            <trkpt lon="101.017674" lat="12.880730">
                <ele>138.567261</ele>
                <time>2009-09-26T07:43:01Z</time>
            </trkpt>
            <trkpt lon="101.017684" lat="12.880847">
                <ele>138.567261</ele>
                <time>2009-09-26T07:43:05Z</time>
            </trkpt>
            <trkpt lon="101.018124" lat="12.881421">
                <ele>142.893066</ele>
                <time>2009-09-26T07:43:33Z</time>
            </trkpt>
            <trkpt lon="101.018344" lat="12.881498">
                <ele>145.777100</ele>
                <time>2009-09-26T07:43:47Z</time>
            </trkpt>
            <trkpt lon="101.018599" lat="12.881976">
                <ele>150.583618</ele>
                <time>2009-09-26T07:44:20Z</time>
            </trkpt>
            <trkpt lon="101.018805" lat="12.882152">
                <ele>152.025757</ele>
                <time>2009-09-26T07:44:37Z</time>
            </trkpt>
            <trkpt lon="101.019306" lat="12.882195">
                <ele>150.583618</ele>
                <time>2009-09-26T07:44:49Z</time>
            </trkpt>
            <trkpt lon="101.020233" lat="12.882624">
                <ele>154.909546</ele>
                <time>2009-09-26T07:45:20Z</time>
            </trkpt>
            <trkpt lon="101.020343" lat="12.883023">
                <ele>152.986939</ele>
                <time>2009-09-26T07:45:34Z</time>
            </trkpt>
            <trkpt lon="101.020952" lat="12.883324">
                <ele>157.793579</ele>
                <time>2009-09-26T07:46:07Z</time>
            </trkpt>
            <trkpt lon="101.021414" lat="12.883333">
                <ele>165.484131</ele>
                <time>2009-09-26T07:46:52Z</time>
            </trkpt>
            <trkpt lon="101.021542" lat="12.883777">
                <ele>167.406738</ele>
                <time>2009-09-26T07:47:15Z</time>
            </trkpt>
            <trkpt lon="101.021828" lat="12.883953">
                <ele>167.406738</ele>
                <time>2009-09-26T07:47:29Z</time>
            </trkpt>
            <trkpt lon="101.023213" lat="12.883967">
                <ele>171.252075</ele>
                <time>2009-09-26T07:48:31Z</time>
            </trkpt>
            <trkpt lon="101.023186" lat="12.884072">
                <ele>173.174683</ele>
                <time>2009-09-26T07:49:08Z</time>
            </trkpt>
            <trkpt lon="101.021846" lat="12.883956">
                <ele>169.810059</ele>
                <time>2009-09-26T08:17:30Z</time>
            </trkpt>
            <trkpt lon="101.021706" lat="12.884092">
                <ele>169.329468</ele>
                <time>2009-09-26T08:17:36Z</time>
            </trkpt>
            <trkpt lon="101.021714" lat="12.885020">
                <ele>171.252075</ele>
                <time>2009-09-26T08:18:12Z</time>
            </trkpt>
            <trkpt lon="101.021403" lat="12.886221">
                <ele>175.577881</ele>
                <time>2009-09-26T08:19:05Z</time>
            </trkpt>
            <trkpt lon="101.021801" lat="12.889926">
                <ele>172.693970</ele>
                <time>2009-09-26T08:20:30Z</time>
            </trkpt>
            <trkpt lon="101.022034" lat="12.890936">
                <ele>178.461914</ele>
                <time>2009-09-26T08:21:21Z</time>
            </trkpt>
            <trkpt lon="101.022338" lat="12.891544">
                <ele>180.865234</ele>
                <time>2009-09-26T08:21:53Z</time>
            </trkpt>
            <trkpt lon="101.022659" lat="12.892009">
                <ele>180.865234</ele>
                <time>2009-09-26T08:22:10Z</time>
            </trkpt>
            <trkpt lon="101.023228" lat="12.893036">
                <ele>174.135864</ele>
                <time>2009-09-26T08:22:31Z</time>
            </trkpt>
            <trkpt lon="101.022743" lat="12.893117">
                <ele>174.616577</ele>
                <time>2009-09-26T08:22:49Z</time>
            </trkpt>
            <trkpt lon="101.020801" lat="12.894022">
                <ele>181.345825</ele>
                <time>2009-09-26T08:24:05Z</time>
            </trkpt>
            <trkpt lon="101.020461" lat="12.893771">
                <ele>185.671753</ele>
                <time>2009-09-26T08:24:33Z</time>
            </trkpt>
            <trkpt lon="101.019817" lat="12.893874">
                <ele>195.284912</ele>
                <time>2009-09-26T08:25:44Z</time>
            </trkpt>
            <trkpt lon="101.019438" lat="12.893880">
                <ele>199.610840</ele>
                <time>2009-09-26T08:26:37Z</time>
            </trkpt>
            <trkpt lon="101.018062" lat="12.894024">
                <ele>206.820679</ele>
                <time>2009-09-26T08:28:16Z</time>
            </trkpt>
            <trkpt lon="101.018062" lat="12.894043">
                <ele>210.666016</ele>
                <time>2009-09-26T08:28:29Z</time>
            </trkpt>
            <trkpt lon="101.017899" lat="12.894235">
                <ele>208.743408</ele>
                <time>2009-09-26T08:28:42Z</time>
            </trkpt>
            <trkpt lon="101.017764" lat="12.894582">
                <ele>210.185425</ele>
                <time>2009-09-26T08:28:59Z</time>
            </trkpt>
            <trkpt lon="101.017450" lat="12.894613">
                <ele>212.588623</ele>
                <time>2009-09-26T08:29:24Z</time>
            </trkpt>
            <trkpt lon="101.016720" lat="12.894588">
                <ele>222.682495</ele>
                <time>2009-09-26T08:30:47Z</time>
            </trkpt>
            <trkpt lon="101.016590" lat="12.894297">
                <ele>229.411743</ele>
                <time>2009-09-26T08:31:34Z</time>
            </trkpt>
            <trkpt lon="101.016506" lat="12.894311">
                <ele>229.892334</ele>
                <time>2009-09-26T08:31:45Z</time>
            </trkpt>
            <trkpt lon="101.016297" lat="12.894329">
                <ele>229.892334</ele>
                <time>2009-09-26T08:32:03Z</time>
            </trkpt>
            <trkpt lon="101.015935" lat="12.894177">
                <ele>224.124512</ele>
                <time>2009-09-26T08:32:21Z</time>
            </trkpt>
            <trkpt lon="101.013736" lat="12.894851">
                <ele>220.759888</ele>
                <time>2009-09-26T08:34:33Z</time>
            </trkpt>
            <trkpt lon="101.013552" lat="12.894724">
                <ele>223.643799</ele>
                <time>2009-09-26T08:35:08Z</time>
            </trkpt>
            <trkpt lon="101.013383" lat="12.894363">
                <ele>233.257080</ele>
                <time>2009-09-26T08:36:07Z</time>
            </trkpt>
            <trkpt lon="101.012980" lat="12.894135">
                <ele>244.792847</ele>
                <time>2009-09-26T08:38:13Z</time>
            </trkpt>
            <trkpt lon="101.012875" lat="12.893535">
                <ele>249.118774</ele>
                <time>2009-09-26T08:42:08Z</time>
            </trkpt>
            <trkpt lon="101.012173" lat="12.892235">
                <ele>227.969727</ele>
                <time>2009-09-26T08:46:55Z</time>
            </trkpt>
            <trkpt lon="101.011437" lat="12.891800">
                <ele>226.527832</ele>
                <time>2009-09-26T08:47:32Z</time>
            </trkpt>
            <trkpt lon="101.011197" lat="12.891489">
                <ele>230.853760</ele>
                <time>2009-09-26T08:48:08Z</time>
            </trkpt>
            <trkpt lon="101.011126" lat="12.891351">
                <ele>229.892334</ele>
                <time>2009-09-26T08:48:23Z</time>
            </trkpt>
            <trkpt lon="101.011135" lat="12.890963">
                <ele>224.605225</ele>
                <time>2009-09-26T08:49:03Z</time>
            </trkpt>
            <trkpt lon="101.010627" lat="12.890496">
                <ele>209.224121</ele>
                <time>2009-09-26T08:50:30Z</time>
            </trkpt>
            <trkpt lon="101.010480" lat="12.889974">
                <ele>203.936890</ele>
                <time>2009-09-26T08:50:55Z</time>
            </trkpt>
            <trkpt lon="101.010128" lat="12.889578">
                <ele>204.417481</ele>
                <time>2009-09-26T08:51:13Z</time>
            </trkpt>
            <trkpt lon="101.010253" lat="12.889362">
                <ele>203.936890</ele>
                <time>2009-09-26T08:51:21Z</time>
            </trkpt>
            <trkpt lon="101.010127" lat="12.888692">
                <ele>201.052856</ele>
                <time>2009-09-26T08:51:42Z</time>
            </trkpt>
            <trkpt lon="101.010272" lat="12.888536">
                <ele>200.572266</ele>
                <time>2009-09-26T08:51:49Z</time>
            </trkpt>
            <trkpt lon="101.010126" lat="12.888311">
                <ele>198.168945</ele>
                <time>2009-09-26T08:52:00Z</time>
            </trkpt>
            <trkpt lon="101.009826" lat="12.888196">
                <ele>199.130127</ele>
                <time>2009-09-26T08:52:10Z</time>
            </trkpt>
            <trkpt lon="101.009679" lat="12.887906">
                <ele>198.168945</ele>
                <time>2009-09-26T08:52:22Z</time>
            </trkpt>
            <trkpt lon="101.009049" lat="12.886595">
                <ele>179.423218</ele>
                <time>2009-09-26T08:54:50Z</time>
            </trkpt>
            <trkpt lon="101.008944" lat="12.886005">
                <ele>171.252075</ele>
                <time>2009-09-26T08:55:29Z</time>
            </trkpt>
            <trkpt lon="101.009062" lat="12.885756">
                <ele>167.887329</ele>
                <time>2009-09-26T08:55:43Z</time>
            </trkpt>
            <trkpt lon="101.009721" lat="12.885694">
                <ele>153.467651</ele>
                <time>2009-09-26T08:57:16Z</time>
            </trkpt>
            <trkpt lon="101.010027" lat="12.885409">
                <ele>143.373657</ele>
                <time>2009-09-26T08:58:04Z</time>
            </trkpt>
            <trkpt lon="101.009712" lat="12.884880">
                <ele>139.528442</ele>
                <time>2009-09-26T08:59:12Z</time>
            </trkpt>
            <trkpt lon="101.009404" lat="12.884460">
                <ele>131.357300</ele>
                <time>2009-09-26T08:59:42Z</time>
            </trkpt>
            <trkpt lon="101.009040" lat="12.883716">
                <ele>118.379395</ele>
                <time>2009-09-26T09:00:10Z</time>
            </trkpt>
            <trkpt lon="101.008517" lat="12.883800">
                <ele>119.821411</ele>
                <time>2009-09-26T09:01:00Z</time>
            </trkpt>
            <trkpt lon="101.008269" lat="12.884234">
                <ele>133.760498</ele>
                <time>2009-09-26T09:03:38Z</time>
            </trkpt>
            <trkpt lon="101.008249" lat="12.884451">
                <ele>127.992554</ele>
                <time>2009-09-26T09:04:10Z</time>
            </trkpt>
            <trkpt lon="101.007711" lat="12.884894">
                <ele>121.744141</ele>
                <time>2009-09-26T09:04:30Z</time>
            </trkpt>
            <trkpt lon="101.007436" lat="12.886029">
                <ele>117.418213</ele>
                <time>2009-09-26T09:04:55Z</time>
            </trkpt>
            <trkpt lon="101.006801" lat="12.886821">
                <ele>116.456787</ele>
                <time>2009-09-26T09:05:18Z</time>
            </trkpt>
            <trkpt lon="101.006275" lat="12.887170">
                <ele>108.285645</ele>
                <time>2009-09-26T09:05:40Z</time>
            </trkpt>
            <trkpt lon="101.005498" lat="12.887289">
                <ele>102.037109</ele>
                <time>2009-09-26T09:06:00Z</time>
            </trkpt>
            <trkpt lon="101.005296" lat="12.887423">
                <ele>98.672485</ele>
                <time>2009-09-26T09:06:07Z</time>
            </trkpt>
            <trkpt lon="101.005052" lat="12.887284">
                <ele>97.711182</ele>
                <time>2009-09-26T09:06:16Z</time>
            </trkpt>
            <trkpt lon="101.005349" lat="12.886190">
                <ele>99.153076</ele>
                <time>2009-09-26T09:06:52Z</time>
            </trkpt>
            <trkpt lon="101.005674" lat="12.885719">
                <ele>101.556397</ele>
                <time>2009-09-26T09:07:16Z</time>
            </trkpt>
            <trkpt lon="101.006101" lat="12.885701">
                <ele>103.959717</ele>
                <time>2009-09-26T09:07:45Z</time>
            </trkpt>
            <trkpt lon="101.006142" lat="12.885598">
                <ele>105.401733</ele>
                <time>2009-09-26T09:07:56Z</time>
            </trkpt>
            <trkpt lon="101.006698" lat="12.884545">
                <ele>104.921020</ele>
                <time>2009-09-26T09:09:30Z</time>
            </trkpt>
            <trkpt lon="101.006742" lat="12.883959">
                <ele>106.363037</ele>
                <time>2009-09-26T09:09:54Z</time>
            </trkpt>
            <trkpt lon="101.007031" lat="12.883599">
                <ele>107.805054</ele>
                <time>2009-09-26T09:10:14Z</time>
            </trkpt>
            <trkpt lon="101.006980" lat="12.883261">
                <ele>106.363037</ele>
                <time>2009-09-26T09:10:26Z</time>
            </trkpt>
            <trkpt lon="101.006729" lat="12.883044">
                <ele>104.440430</ele>
                <time>2009-09-26T09:10:49Z</time>
            </trkpt>
            <trkpt lon="101.006992" lat="12.883344">
                <ele>107.805054</ele>
                <time>2009-09-26T09:11:38Z</time>
            </trkpt>
            <trkpt lon="101.007010" lat="12.883629">
                <ele>109.246948</ele>
                <time>2009-09-26T09:11:52Z</time>
            </trkpt>
            <trkpt lon="101.006513" lat="12.884245">
                <ele>105.401733</ele>
                <time>2009-09-26T09:12:21Z</time>
            </trkpt>
            <trkpt lon="101.004872" lat="12.884083">
                <ele>100.114502</ele>
                <time>2009-09-26T09:13:04Z</time>
            </trkpt>
            <trkpt lon="101.004642" lat="12.883965">
                <ele>99.153076</ele>
                <time>2009-09-26T09:13:11Z</time>
            </trkpt>
            <trkpt lon="101.004405" lat="12.883368">
                <ele>98.191895</ele>
                <time>2009-09-26T09:13:27Z</time>
            </trkpt>
            <trkpt lon="101.004186" lat="12.882731">
                <ele>96.269287</ele>
                <time>2009-09-26T09:13:45Z</time>
            </trkpt>
            <trkpt lon="101.001388" lat="12.884231">
                <ele>85.694580</ele>
                <time>2009-09-26T09:15:01Z</time>
            </trkpt>
            <trkpt lon="101.001492" lat="12.884912">
                <ele>87.136597</ele>
                <time>2009-09-26T09:15:21Z</time>
            </trkpt>
            <trkpt lon="101.000415" lat="12.885670">
                <ele>87.136597</ele>
                <time>2009-09-26T09:15:51Z</time>
            </trkpt>
            <trkpt lon="101.000186" lat="12.885980">
                <ele>88.098022</ele>
                <time>2009-09-26T09:16:00Z</time>
            </trkpt>
            <trkpt lon="101.000077" lat="12.886073">
                <ele>87.136597</ele>
                <time>2009-09-26T09:16:03Z</time>
            </trkpt>
            <trkpt lon="101.000011" lat="12.886404">
                <ele>88.098022</ele>
                <time>2009-09-26T09:16:11Z</time>
            </trkpt>
            <trkpt lon="101.000232" lat="12.887140">
                <ele>94.346558</ele>
                <time>2009-09-26T09:16:43Z</time>
            </trkpt>
            <trkpt lon="101.000337" lat="12.887612">
                <ele>94.827148</ele>
                <time>2009-09-26T09:17:00Z</time>
            </trkpt>
            <trkpt lon="101.000097" lat="12.887872">
                <ele>91.462524</ele>
                <time>2009-09-26T09:17:08Z</time>
            </trkpt>
            <trkpt lon="100.999164" lat="12.888182">
                <ele>86.175293</ele>
                <time>2009-09-26T09:17:22Z</time>
            </trkpt>
            <trkpt lon="100.998953" lat="12.888483">
                <ele>84.252685</ele>
                <time>2009-09-26T09:17:28Z</time>
            </trkpt>
            <trkpt lon="100.998798" lat="12.889935">
                <ele>79.446045</ele>
                <time>2009-09-26T09:17:55Z</time>
            </trkpt>
            <trkpt lon="100.997837" lat="12.890255">
                <ele>76.081421</ele>
                <time>2009-09-26T09:18:25Z</time>
            </trkpt>
            <trkpt lon="100.995530" lat="12.891641">
                <ele>82.810791</ele>
                <time>2009-09-26T09:20:07Z</time>
            </trkpt>
            <trkpt lon="100.994744" lat="12.891452">
                <ele>66.468262</ele>
                <time>2009-09-26T09:20:31Z</time>
            </trkpt>
            <trkpt lon="100.994488" lat="12.891599">
                <ele>66.468262</ele>
                <time>2009-09-26T09:20:38Z</time>
            </trkpt>
            <trkpt lon="100.994540" lat="12.892381">
                <ele>65.987671</ele>
                <time>2009-09-26T09:20:54Z</time>
            </trkpt>
            <trkpt lon="100.994226" lat="12.892708">
                <ele>65.507080</ele>
                <time>2009-09-26T09:21:03Z</time>
            </trkpt>
            <trkpt lon="100.994062" lat="12.893250">
                <ele>64.545654</ele>
                <time>2009-09-26T09:21:14Z</time>
            </trkpt>
            <trkpt lon="100.993833" lat="12.893453">
                <ele>63.584351</ele>
                <time>2009-09-26T09:21:20Z</time>
            </trkpt>
            <trkpt lon="100.993014" lat="12.893532">
                <ele>61.661743</ele>
                <time>2009-09-26T09:21:33Z</time>
            </trkpt>
            <trkpt lon="100.991979" lat="12.893156">
                <ele>61.661743</ele>
                <time>2009-09-26T09:21:50Z</time>
            </trkpt>
            <trkpt lon="100.990497" lat="12.892351">
                <ele>57.816528</ele>
                <time>2009-09-26T09:22:11Z</time>
            </trkpt>
            <trkpt lon="100.990354" lat="12.892152">
                <ele>57.335815</ele>
                <time>2009-09-26T09:22:16Z</time>
            </trkpt>
            <trkpt lon="100.989209" lat="12.892042">
                <ele>54.451782</ele>
                <time>2009-09-26T09:22:38Z</time>
            </trkpt>
            <trkpt lon="100.988487" lat="12.891721">
                <ele>53.490479</ele>
                <time>2009-09-26T09:22:53Z</time>
            </trkpt>
            <trkpt lon="100.987049" lat="12.890742">
                <ele>50.606567</ele>
                <time>2009-09-26T09:23:27Z</time>
            </trkpt>
            <trkpt lon="100.986198" lat="12.890263">
                <ele>47.722534</ele>
                <time>2009-09-26T09:23:46Z</time>
            </trkpt>
            <trkpt lon="100.985794" lat="12.890334">
                <ele>47.722534</ele>
                <time>2009-09-26T09:23:56Z</time>
            </trkpt>
            <trkpt lon="100.985459" lat="12.891091">
                <ele>48.203369</ele>
                <time>2009-09-26T09:24:12Z</time>
            </trkpt>
            <trkpt lon="100.984728" lat="12.891591">
                <ele>49.164551</ele>
                <time>2009-09-26T09:24:29Z</time>
            </trkpt>
            <trkpt lon="100.984662" lat="12.891765">
                <ele>49.164551</ele>
                <time>2009-09-26T09:24:33Z</time>
            </trkpt>
            <trkpt lon="100.984838" lat="12.894254">
                <ele>58.777710</ele>
                <time>2009-09-26T09:25:31Z</time>
            </trkpt>
            <trkpt lon="100.985241" lat="12.895628">
                <ele>57.816528</ele>
                <time>2009-09-26T09:25:58Z</time>
            </trkpt>
            <trkpt lon="100.985235" lat="12.895482">
                <ele>57.335815</ele>
                <time>2009-09-26T09:26:06Z</time>
            </trkpt>
            <trkpt lon="100.985484" lat="12.895331">
                <ele>55.893799</ele>
                <time>2009-09-26T09:26:15Z</time>
            </trkpt>
            <trkpt lon="100.986023" lat="12.895389">
                <ele>54.932373</ele>
                <time>2009-09-26T09:26:27Z</time>
            </trkpt>
            <trkpt lon="100.986123" lat="12.895509">
                <ele>55.413086</ele>
                <time>2009-09-26T09:26:32Z</time>
            </trkpt>
            <trkpt lon="100.986550" lat="12.897232">
                <ele>60.219727</ele>
                <time>2009-09-26T09:27:27Z</time>
            </trkpt>
            <trkpt lon="100.986681" lat="12.897744">
                <ele>60.700317</ele>
                <time>2009-09-26T09:27:40Z</time>
            </trkpt>
            <trkpt lon="100.987987" lat="12.899237">
                <ele>58.777710</ele>
                <time>2009-09-26T09:28:25Z</time>
            </trkpt>
            <trkpt lon="100.988378" lat="12.899311">
                <ele>57.816528</ele>
                <time>2009-09-26T09:28:36Z</time>
            </trkpt>
            <trkpt lon="100.989047" lat="12.898874">
                <ele>56.855103</ele>
                <time>2009-09-26T09:28:59Z</time>
            </trkpt>
            <trkpt lon="100.990014" lat="12.899265">
                <ele>57.816528</ele>
                <time>2009-09-26T09:29:21Z</time>
            </trkpt>
            <trkpt lon="100.990536" lat="12.899679">
                <ele>58.297119</ele>
                <time>2009-09-26T09:29:34Z</time>
            </trkpt>
            <trkpt lon="100.990817" lat="12.899812">
                <ele>57.816528</ele>
                <time>2009-09-26T09:29:40Z</time>
            </trkpt>
            <trkpt lon="100.990808" lat="12.900292">
                <ele>58.777710</ele>
                <time>2009-09-26T09:29:52Z</time>
            </trkpt>
            <trkpt lon="100.991553" lat="12.901569">
                <ele>62.142334</ele>
                <time>2009-09-26T09:30:30Z</time>
            </trkpt>
            <trkpt lon="100.991987" lat="12.902301">
                <ele>62.142334</ele>
                <time>2009-09-26T09:30:50Z</time>
            </trkpt>
            <trkpt lon="100.991110" lat="12.902742">
                <ele>61.661743</ele>
                <time>2009-09-26T09:31:13Z</time>
            </trkpt>
            <trkpt lon="100.991463" lat="12.904728">
                <ele>62.142334</ele>
                <time>2009-09-26T09:32:12Z</time>
            </trkpt>
            <trkpt lon="100.991350" lat="12.905001">
                <ele>63.103638</ele>
                <time>2009-09-26T09:32:20Z</time>
            </trkpt>
            <trkpt lon="100.991720" lat="12.905134">
                <ele>62.622925</ele>
                <time>2009-09-26T09:32:32Z</time>
            </trkpt>
            <trkpt lon="100.993391" lat="12.905189">
                <ele>67.910278</ele>
                <time>2009-09-26T09:33:18Z</time>
            </trkpt>
            <trkpt lon="100.994061" lat="12.905244">
                <ele>69.352295</ele>
                <time>2009-09-26T09:33:40Z</time>
            </trkpt>
            <trkpt lon="100.995857" lat="12.905157">
                <ele>74.158813</ele>
                <time>2009-09-26T09:34:33Z</time>
            </trkpt>
            <trkpt lon="100.996501" lat="12.905065">
                <ele>75.120239</ele>
                <time>2009-09-26T09:34:49Z</time>
            </trkpt>
            <trkpt lon="100.997442" lat="12.905170">
                <ele>74.158813</ele>
                <time>2009-09-26T09:35:12Z</time>
            </trkpt>
            <trkpt lon="100.997969" lat="12.905442">
                <ele>76.081421</ele>
                <time>2009-09-26T09:35:35Z</time>
            </trkpt>
            <trkpt lon="100.998219" lat="12.905661">
                <ele>76.081421</ele>
                <time>2009-09-26T09:35:49Z</time>
            </trkpt>
            <trkpt lon="100.998208" lat="12.905815">
                <ele>76.562134</ele>
                <time>2009-09-26T09:35:59Z</time>
            </trkpt>
            <trkpt lon="100.997566" lat="12.906075">
                <ele>76.081421</ele>
                <time>2009-09-26T09:36:28Z</time>
            </trkpt>
            <trkpt lon="100.997185" lat="12.906843">
                <ele>75.600830</ele>
                <time>2009-09-26T09:36:51Z</time>
            </trkpt>
            <trkpt lon="100.996986" lat="12.907559">
                <ele>75.120239</ele>
                <time>2009-09-26T09:37:08Z</time>
            </trkpt>
            <trkpt lon="100.996065" lat="12.908672">
                <ele>73.197632</ele>
                <time>2009-09-26T09:37:43Z</time>
            </trkpt>
            <trkpt lon="100.996127" lat="12.909004">
                <ele>73.197632</ele>
                <time>2009-09-26T09:37:51Z</time>
            </trkpt>
            <trkpt lon="100.996606" lat="12.909607">
                <ele>73.197632</ele>
                <time>2009-09-26T09:38:07Z</time>
            </trkpt>
            <trkpt lon="100.996819" lat="12.910254">
                <ele>73.197632</ele>
                <time>2009-09-26T09:38:22Z</time>
            </trkpt>
            <trkpt lon="100.996761" lat="12.910488">
                <ele>72.716919</ele>
                <time>2009-09-26T09:38:28Z</time>
            </trkpt>
            <trkpt lon="100.996573" lat="12.910553">
                <ele>71.274902</ele>
                <time>2009-09-26T09:38:40Z</time>
            </trkpt>
            <trkpt lon="100.997454" lat="12.910442">
                <ele>75.120239</ele>
                <time>2009-09-26T09:39:15Z</time>
            </trkpt>
            <trkpt lon="100.998257" lat="12.910726">
                <ele>78.004028</ele>
                <time>2009-09-26T09:39:56Z</time>
            </trkpt>
            <trkpt lon="100.997238" lat="12.914075">
                <ele>73.197632</ele>
                <time>2009-09-26T09:41:42Z</time>
            </trkpt>
            <trkpt lon="100.996308" lat="12.914911">
                <ele>79.446045</ele>
                <time>2009-09-26T09:42:19Z</time>
            </trkpt>
            <trkpt lon="100.996160" lat="12.915038">
                <ele>79.446045</ele>
                <time>2009-09-26T09:42:29Z</time>
            </trkpt>
            <trkpt lon="100.995120" lat="12.914338">
                <ele>80.407471</ele>
                <time>2009-09-26T09:43:07Z</time>
            </trkpt>
            <trkpt lon="100.992952" lat="12.912671">
                <ele>74.158813</ele>
                <time>2009-09-26T09:44:05Z</time>
            </trkpt>
            <trkpt lon="100.989998" lat="12.908310">
                <ele>75.600830</ele>
                <time>2009-09-26T09:47:26Z</time>
            </trkpt>
            <trkpt lon="100.989080" lat="12.907877">
                <ele>72.716919</ele>
                <time>2009-09-26T09:47:49Z</time>
            </trkpt>
            <trkpt lon="100.988076" lat="12.908115">
                <ele>70.313477</ele>
                <time>2009-09-26T09:48:12Z</time>
            </trkpt>
            <trkpt lon="100.987459" lat="12.908008">
                <ele>69.832886</ele>
                <time>2009-09-26T09:48:35Z</time>
            </trkpt>
            <trkpt lon="100.987493" lat="12.907888">
                <ele>69.832886</ele>
                <time>2009-09-26T09:48:50Z</time>
            </trkpt>
            <trkpt lon="100.985754" lat="12.905221">
                <ele>70.313477</ele>
                <time>2009-09-26T09:50:15Z</time>
            </trkpt>
            <trkpt lon="100.985984" lat="12.903352">
                <ele>76.081421</ele>
                <time>2009-09-26T09:51:08Z</time>
            </trkpt>
            <trkpt lon="100.986362" lat="12.900236">
                <ele>66.948975</ele>
                <time>2009-09-26T09:52:15Z</time>
            </trkpt>
            <trkpt lon="100.980698" lat="12.901665">
                <ele>68.871582</ele>
                <time>2009-09-26T09:54:18Z</time>
            </trkpt>
            <trkpt lon="100.980496" lat="12.901916">
                <ele>68.871582</ele>
                <time>2009-09-26T09:54:25Z</time>
            </trkpt>
            <trkpt lon="100.980193" lat="12.903086">
                <ele>69.352295</ele>
                <time>2009-09-26T09:54:50Z</time>
            </trkpt>
            <trkpt lon="100.979227" lat="12.906340">
                <ele>59.258423</ele>
                <time>2009-09-26T09:55:51Z</time>
            </trkpt>
            <trkpt lon="100.980426" lat="12.909265">
                <ele>60.219727</ele>
                <time>2009-09-26T09:56:47Z</time>
            </trkpt>
            <trkpt lon="100.980256" lat="12.909549">
                <ele>58.777710</ele>
                <time>2009-09-26T09:56:55Z</time>
            </trkpt>
            <trkpt lon="100.978684" lat="12.910280">
                <ele>58.297119</ele>
                <time>2009-09-26T09:57:25Z</time>
            </trkpt>
            <trkpt lon="100.977371" lat="12.911241">
                <ele>58.297119</ele>
                <time>2009-09-26T09:57:56Z</time>
            </trkpt>
            <trkpt lon="100.977169" lat="12.911392">
                <ele>57.816528</ele>
                <time>2009-09-26T09:58:01Z</time>
            </trkpt>
            <trkpt lon="100.976063" lat="12.911722">
                <ele>55.893799</ele>
                <time>2009-09-26T09:58:22Z</time>
            </trkpt>
            <trkpt lon="100.975852" lat="12.910982">
                <ele>57.816528</ele>
                <time>2009-09-26T09:58:43Z</time>
            </trkpt>
            <trkpt lon="100.975559" lat="12.910477">
                <ele>56.855103</ele>
                <time>2009-09-26T09:59:01Z</time>
            </trkpt>
            <trkpt lon="100.974936" lat="12.909942">
                <ele>56.855103</ele>
                <time>2009-09-26T09:59:19Z</time>
            </trkpt>
            <trkpt lon="100.974483" lat="12.909057">
                <ele>59.258423</ele>
                <time>2009-09-26T09:59:42Z</time>
            </trkpt>
            <trkpt lon="100.975113" lat="12.907010">
                <ele>64.065063</ele>
                <time>2009-09-26T10:00:46Z</time>
            </trkpt>
            <trkpt lon="100.974846" lat="12.906930">
                <ele>68.390869</ele>
                <time>2009-09-26T10:00:55Z</time>
            </trkpt>
            <trkpt lon="100.974501" lat="12.906592">
                <ele>69.832886</ele>
                <time>2009-09-26T10:01:12Z</time>
            </trkpt>
            <trkpt lon="100.974358" lat="12.906333">
                <ele>70.794190</ele>
                <time>2009-09-26T10:01:30Z</time>
            </trkpt>
            <trkpt lon="100.974313" lat="12.906151">
                <ele>69.352295</ele>
                <time>2009-09-26T10:01:38Z</time>
            </trkpt>
            <trkpt lon="100.974355" lat="12.906318">
                <ele>69.832886</ele>
                <time>2009-09-26T10:01:42Z</time>
            </trkpt>
            <trkpt lon="100.974421" lat="12.906264">
                <ele>70.794190</ele>
                <time>2009-09-26T10:01:57Z</time>
            </trkpt>
            <trkpt lon="100.975051" lat="12.905653">
                <ele>69.832886</ele>
                <time>2009-09-26T10:02:24Z</time>
            </trkpt>
            <trkpt lon="100.975051" lat="12.905653">
                <ele>69.352295</ele>
                <time>2009-09-26T10:02:26Z</time>
            </trkpt>
        </trkseg>
    </trk>
</gpx>